Time;durP1;ratioP1;P1;durP2;ratioP2;P2;SDS_P1;SDS_P2;PMS_P1;PMS_P2;Temp;Humidity;BMP_temperature;BMP_pressure;BME280_temperature;BME280_humidity;BME280_pressure;Samples;Min_cycle;Max_cycle;Signal;HPM_P1;HPM_P2
2022/06/09 00:00:16;;;;;;;8.38;5.25;;;;;;;18.21;94.56;94277.28;5095223;28;20178;-78
2022/06/09 00:02:45;;;;;;;9.02;5.85;;;;;;;18.21;94.33;94282.59;5095882;28;20215;-78
2022/06/09 00:05:12;;;;;;;8.98;5.97;;;;;;;18.18;94.59;94283.13;5093690;28;20178;-79
2022/06/09 00:07:38;;;;;;;8.32;4.85;;;;;;;18.11;94.61;94261.31;5094036;28;20177;-78
2022/06/09 00:10:15;;;;;;;9.93;5.95;;;;;;;18.12;94.07;94270.13;5093534;28;20181;-78
2022/06/09 00:12:41;;;;;;;8.25;4.63;;;;;;;18.12;94.52;94281.56;5087649;28;20170;-78
2022/06/09 00:15:10;;;;;;;8.77;5.95;;;;;;;18.06;94.24;94285.31;5094161;28;20174;-78
2022/06/09 00:17:35;;;;;;;7.38;5.20;;;;;;;18.04;94.32;94290.13;5093558;28;20298;-78
2022/06/09 00:20:01;;;;;;;7.22;5.70;;;;;;;18.05;94.33;94281.06;5094164;28;21044;-78
2022/06/09 00:22:26;;;;;;;9.38;4.97;;;;;;;17.91;94.34;94272.03;5094087;28;20181;-78
2022/06/09 00:24:52;;;;;;;11.23;5.95;;;;;;;17.95;94.11;94279.22;5093285;28;20178;-78
2022/06/09 00:27:17;;;;;;;7.55;4.80;;;;;;;17.77;93.98;94250.50;5093880;28;20683;-78
2022/06/09 00:29:42;;;;;;;33.85;19.35;;;;;;;17.90;94.27;94265.13;5095210;28;20291;-78
2022/06/09 00:32:08;;;;;;;43.65;26.00;;;;;;;17.49;94.22;94203.94;5094310;28;20209;-79
2022/06/09 00:34:34;;;;;;;18.30;11.82;;;;;;;17.90;94.24;94265.13;5094770;28;20205;-79
2022/06/09 00:36:59;;;;;;;33.83;17.48;;;;;;;17.91;93.89;94269.38;5093904;28;20644;-79
2022/06/09 00:39:24;;;;;;;35.40;20.73;;;;;;;17.69;93.84;94232.41;5094318;28;20178;-79
2022/06/09 00:41:50;;;;;;;15.68;10.63;;;;;;;17.94;93.59;94268.84;5093847;28;20223;-79
2022/06/09 00:44:17;;;;;;;16.60;9.18;;;;;;;17.95;92.69;94257.91;5095995;28;20176;-79
2022/06/09 00:46:43;;;;;;;16.40;9.25;;;;;;;17.84;92.78;94245.69;5093866;28;20182;-79
2022/06/09 00:49:18;;;;;;;11.70;8.88;;;;;;;17.96;93.29;94258.72;5094513;28;20245;-79
2022/06/09 00:51:47;;;;;;;12.20;8.35;;;;;;;17.97;92.65;94252.31;5094657;28;20189;-79
2022/06/09 00:54:26;;;;;;;16.38;8.30;;;;;;;17.97;92.55;94255.78;5093081;28;20675;-79
2022/06/09 00:57:02;;;;;;;10.48;6.05;;;;;;;17.88;92.71;94261.94;5088259;28;20600;-79
2022/06/09 00:59:29;;;;;;;15.98;8.82;;;;;;;17.73;92.90;94242.25;5095134;28;20169;-78
2022/06/09 01:01:57;;;;;;;11.55;6.97;;;;;;;17.76;93.26;94266.75;5094049;28;20173;-78
2022/06/09 01:04:23;;;;;;;15.35;9.85;;;;;;;17.74;93.26;94261.69;5086941;28;20173;-79
2022/06/09 01:07:02;;;;;;;19.95;11.60;;;;;;;17.72;93.57;94263.84;5093837;28;20169;-79
2022/06/09 01:09:29;;;;;;;24.02;14.75;;;;;;;17.77;93.70;94263.00;5084992;28;20182;-79
2022/06/09 01:11:56;;;;;;;15.77;10.00;;;;;;;17.79;93.33;94255.56;5094303;28;20226;-79
2022/06/09 01:14:26;;;;;;;11.70;8.15;;;;;;;17.79;92.82;94253.69;5092858;28;20177;-78
2022/06/09 01:17:13;;;;;;;16.00;9.65;;;;;;;17.80;92.51;94254.50;5092148;28;20182;-78
2022/06/09 01:19:47;;;;;;;13.63;8.52;;;;;;;17.81;92.87;94256.09;5089074;28;20185;-78
2022/06/09 01:22:16;;;;;;;11.13;7.00;;;;;;;17.83;92.45;94260.06;5092375;28;20161;-78
2022/06/09 01:25:09;;;;;;;12.40;7.35;;;;;;;17.73;92.53;94244.09;5093981;28;20170;-78
2022/06/09 01:28:10;;;;;;;12.20;7.13;;;;;;;17.71;92.61;94255.06;5092606;28;20169;-78
2022/06/09 01:31:01;;;;;;;10.77;6.88;;;;;;;17.68;92.89;94244.94;5089143;28;20676;-78
2022/06/09 01:33:48;;;;;;;16.95;8.68;;;;;;;17.63;93.20;94249.47;5092403;28;20228;-78
2022/06/09 01:36:14;;;;;;;16.20;8.48;;;;;;;17.69;92.88;94243.88;5092229;28;20260;-78
2022/06/09 01:38:54;;;;;;;13.07;8.02;;;;;;;17.63;92.73;94236.97;5094458;28;20680;-78
2022/06/09 01:41:22;;;;;;;12.75;7.53;;;;;;;17.49;92.77;94198.63;5093659;28;20169;-78
2022/06/09 01:43:50;;;;;;;12.38;7.88;;;;;;;17.73;92.90;94234.25;5092016;28;20178;-78
2022/06/09 01:46:23;;;;;;;29.30;15.43;;;;;;;17.73;92.70;94227.38;5092685;28;20636;-78
2022/06/09 01:48:53;;;;;;;16.65;9.52;;;;;;;17.73;92.55;94232.69;5094357;28;20170;-78
2022/06/09 01:51:21;;;;;;;29.65;18.73;;;;;;;17.68;93.07;94236.94;5093378;28;20660;-78
2022/06/09 01:53:54;;;;;;;31.08;19.33;;;;;;;17.71;93.35;94249.72;5094303;28;20623;-79
2022/06/09 01:56:30;;;;;;;20.02;11.88;;;;;;;17.60;92.97;94228.69;5092521;28;20173;-79
2022/06/09 01:59:03;;;;;;;26.60;15.05;;;;;;;17.53;93.30;94213.00;5094572;28;20300;-79
2022/06/09 02:01:38;;;;;;;17.35;10.25;;;;;;;17.78;93.85;94241.44;5092453;28;20647;-79
2022/06/09 02:04:08;;;;;;;16.05;8.93;;;;;;;17.76;93.53;94232.94;5091869;28;20264;-79
2022/06/09 02:06:36;;;;;;;20.23;12.60;;;;;;;17.84;93.28;94235.03;5092288;28;20238;-79
2022/06/09 02:09:03;;;;;;;16.73;10.75;;;;;;;17.89;93.33;94240.38;5093059;28;20189;-79
2022/06/09 02:11:29;;;;;;;31.30;16.10;;;;;;;17.68;93.29;94210.31;5095933;28;20181;-78
2022/06/09 02:13:57;;;;;;;14.68;9.25;;;;;;;17.55;93.32;94194.91;5096288;28;20186;-79
2022/06/09 02:16:23;;;;;;;21.67;14.18;;;;;;;17.83;93.72;94248.63;5096782;28;20666;-79
2022/06/09 02:18:52;;;;;;;20.45;11.20;;;;;;;17.66;93.70;94215.13;5096849;28;20201;-79
2022/06/09 02:21:23;;;;;;;17.80;10.80;;;;;;;17.73;94.29;94238.78;5096325;28;20182;-78
2022/06/09 02:23:50;;;;;;;21.02;12.95;;;;;;;17.77;94.69;94241.72;5097053;28;20200;-78
2022/06/09 02:26:16;;;;;;;27.70;15.45;;;;;;;17.84;94.16;94243.03;5097647;28;20181;-78
2022/06/09 02:28:43;;;;;;;34.45;17.63;;;;;;;17.83;94.23;94244.09;5096718;28;20173;-78
2022/06/09 02:31:09;;;;;;;28.77;14.90;;;;;;;17.85;94.41;94244.63;5096234;28;20173;-79
2022/06/09 02:33:34;;;;;;;26.73;15.10;;;;;;;17.84;93.93;94253.69;5096024;28;20170;-79
2022/06/09 02:36:00;;;;;;;19.55;13.45;;;;;;;17.79;94.45;94255.56;5096082;28;20170;-79
2022/06/09 02:38:26;;;;;;;22.15;11.43;;;;;;;17.65;94.03;94228.69;5096092;28;20190;-78
2022/06/09 02:40:54;;;;;;;19.10;11.70;;;;;;;17.57;93.71;94216.69;5096469;28;20177;-78
2022/06/09 02:43:20;;;;;;;23.73;11.38;;;;;;;17.88;93.51;94257.41;5096183;28;20235;-78
2022/06/09 02:45:45;;;;;;;21.15;11.95;;;;;;;17.88;93.03;94257.41;5095438;28;20173;-79
2022/06/09 02:48:12;;;;;;;21.85;13.55;;;;;;;17.91;92.73;94254.19;5096373;28;20272;-78
2022/06/09 02:50:37;;;;;;;23.35;14.57;;;;;;;17.78;92.53;94240.66;5095328;28;20181;-78
2022/06/09 02:53:03;;;;;;;22.52;14.60;;;;;;;17.89;92.92;94260.88;5096577;28;20230;-79
2022/06/09 02:55:29;;;;;;;20.75;13.10;;;;;;;17.85;92.77;94260.59;5095501;28;20233;-78
2022/06/09 02:57:54;;;;;;;15.38;10.75;;;;;;;17.76;92.96;94250.78;5094821;28;20221;-78
2022/06/09 03:00:20;;;;;;;20.73;11.70;;;;;;;17.76;93.17;94251.56;5095660;28;20185;-79
2022/06/09 03:02:55;;;;;;;19.00;11.55;;;;;;;17.76;93.47;94259.56;5096082;28;20679;-79
2022/06/09 03:05:21;;;;;;;18.98;11.40;;;;;;;17.77;93.67;94260.34;5093724;28;20284;-78
2022/06/09 03:07:46;;;;;;;17.00;11.25;;;;;;;17.69;93.93;94243.88;5096255;28;20290;-78
2022/06/09 03:10:12;;;;;;;22.00;12.50;;;;;;;17.78;94.08;94261.94;5095791;28;20173;-78
2022/06/09 03:12:38;;;;;;;21.38;12.48;;;;;;;17.83;93.92;94260.06;5094647;28;20181;-78
2022/06/09 03:15:07;;;;;;;20.67;12.13;;;;;;;17.83;93.82;94253.94;5095139;28;20174;-78
2022/06/09 03:17:34;;;;;;;18.58;11.60;;;;;;;17.81;94.14;94250.78;5095302;28;20189;-78
2022/06/09 03:19:59;;;;;;;25.27;13.27;;;;;;;17.89;94.09;94260.88;5085823;28;20177;-79
2022/06/09 03:22:25;;;;;;;18.63;11.93;;;;;;;17.91;94.10;94261.38;5093665;28;20268;-78
2022/06/09 03:24:50;;;;;;;21.13;11.80;;;;;;;17.94;93.98;94256.31;5095155;28;20174;-78
2022/06/09 03:27:15;;;;;;;18.92;11.48;;;;;;;17.66;94.08;94201.81;5093602;28;20275;-78
2022/06/09 03:29:41;;;;;;;20.23;12.02;;;;;;;17.93;93.95;94227.28;5094984;28;20181;-79
2022/06/09 03:32:07;;;;;;;18.80;11.52;;;;;;;18.17;93.83;94259.44;5095029;28;20629;-79
2022/06/09 03:34:32;;;;;;;18.88;11.25;;;;;;;18.24;93.40;94254.63;5093470;28;20188;-79
2022/06/09 03:36:57;;;;;;;17.20;11.32;;;;;;;18.34;93.38;94255.34;5096422;28;20205;-79
2022/06/09 03:39:23;;;;;;;19.42;10.52;;;;;;;18.54;92.69;94267.00;5093909;28;20182;-79
2022/06/09 03:41:48;;;;;;;17.08;10.77;;;;;;;18.65;92.53;94257.91;5094117;28;20184;-79
2022/06/09 03:44:14;;;;;;;15.82;10.60;;;;;;;18.71;92.60;94243.47;5093990;28;20268;-78
2022/06/09 03:46:39;;;;;;;13.75;9.95;;;;;;;18.79;92.09;94230.34;5094167;28;20173;-79
2022/06/09 03:49:05;;;;;;;15.95;10.02;;;;;;;19.09;90.38;94264.03;5094550;28;20644;-79
2022/06/09 03:51:30;;;;;;;21.35;12.07;;;;;;;19.02;89.98;94239.53;5093646;28;20170;-79
2022/06/09 03:53:56;;;;;;;17.20;10.68;;;;;;;19.07;89.54;94241.38;5096405;28;20175;-78
2022/06/09 03:56:22;;;;;;;24.27;13.00;;;;;;;19.26;89.64;94265.50;5094265;28;20781;-78
2022/06/09 03:58:48;;;;;;;21.98;12.63;;;;;;;19.26;88.65;94271.66;5093575;28;20308;-79
2022/06/09 04:01:17;;;;;;;19.45;11.77;;;;;;;19.21;88.95;94264.47;5093840;28;20181;-78
2022/06/09 04:03:44;;;;;;;18.10;10.98;;;;;;;19.19;88.42;94261.28;5093727;28;20268;-78
2022/06/09 04:06:20;;;;;;;21.25;12.75;;;;;;;18.94;88.70;94221.44;5093822;28;20196;-79
2022/06/09 04:08:47;;;;;;;20.08;11.13;;;;;;;19.13;88.51;94242.91;5093886;28;20185;-79
2022/06/09 04:11:12;;;;;;;20.55;11.60;;;;;;;19.13;88.58;94233.03;5091313;28;20200;-78
2022/06/09 04:13:38;;;;;;;20.08;11.90;;;;;;;19.30;88.23;94258.50;5094098;28;20169;-78
2022/06/09 04:16:20;;;;;;;25.88;11.05;;;;;;;19.32;87.92;94259.84;5093363;28;20648;-78
2022/06/09 04:18:45;;;;;;;21.88;13.27;;;;;;;19.34;87.97;94264.91;5086875;28;20651;-78
2022/06/09 04:21:11;;;;;;;23.45;10.98;;;;;;;19.32;87.75;94261.72;5093943;28;20173;-78
2022/06/09 04:23:37;;;;;;;20.98;12.05;;;;;;;19.37;88.05;94270.47;5093089;28;20253;-78
2022/06/09 04:26:02;;;;;;;19.55;11.82;;;;;;;19.40;88.38;94253.91;5093805;28;20252;-78
2022/06/09 04:28:28;;;;;;;20.67;11.98;;;;;;;19.46;87.91;94260.78;5094175;28;20230;-78
2022/06/09 04:30:53;;;;;;;18.95;11.13;;;;;;;19.46;87.36;94250.09;5093803;28;20234;-78
2022/06/09 04:33:19;;;;;;;18.83;11.48;;;;;;;19.51;87.13;94258.09;5093529;28;20666;-79
2022/06/09 04:35:44;;;;;;;19.17;11.57;;;;;;;19.37;86.81;94232.31;5093581;28;20170;-78
2022/06/09 04:38:11;;;;;;;24.83;12.27;;;;;;;19.57;86.82;94248.97;5094022;28;20279;-79
2022/06/09 04:40:39;;;;;;;20.75;11.52;;;;;;;19.66;86.47;94254.50;5094026;28;20175;-78
2022/06/09 04:43:07;;;;;;;40.25;20.67;;;;;;;19.78;85.74;94251.44;5093399;28;20575;-79
2022/06/09 04:45:33;;;;;;;52.33;29.67;;;;;;;19.92;85.76;94257.72;5094744;28;20169;-79
2022/06/09 04:47:59;;;;;;;19.77;12.75;;;;;;;20.16;86.13;94260.38;5096400;28;20184;-79
2022/06/09 04:50:24;;;;;;;23.08;14.02;;;;;;;20.21;84.61;94239.75;5094782;28;20632;-79
2022/06/09 04:52:51;;;;;;;21.15;13.23;;;;;;;20.56;83.84;94256.47;5094304;28;20632;-79
2022/06/09 04:55:16;;;;;;;32.17;17.73;;;;;;;20.86;83.15;94257.91;5095651;28;20240;-79
2022/06/09 04:57:42;;;;;;;21.15;11.65;;;;;;;21.02;80.71;94257.41;5094547;28;20260;-79
2022/06/09 05:00:10;;;;;;;31.85;19.38;;;;;;;21.20;80.72;94226.38;5093114;28;20193;-79
2022/06/09 05:02:35;;;;;;;21.23;13.25;;;;;;;21.78;79.58;94255.41;5094237;28;20181;-79
2022/06/09 05:05:01;;;;;;;18.60;11.68;;;;;;;22.02;75.40;94266.00;5095357;28;20243;-79
2022/06/09 05:07:28;;;;;;;19.77;12.65;;;;;;;22.12;75.31;94255.88;5093852;28;20603;-79
2022/06/09 05:09:54;;;;;;;22.60;15.45;;;;;;;22.07;73.22;94205.00;5092920;28;20570;-79
2022/06/09 05:12:20;;;;;;;26.42;16.27;;;;;;;22.52;70.65;94256.16;5091691;28;20230;-79
2022/06/09 05:14:46;;;;;;;20.23;13.18;;;;;;;22.83;71.32;94257.13;5085898;28;20179;-79
2022/06/09 05:17:12;;;;;;;20.00;11.32;;;;;;;23.17;72.05;94245.09;5087895;28;20201;-79
2022/06/09 05:19:37;;;;;;;26.17;17.83;;;;;;;23.39;68.61;94271.16;5089176;28;20174;-79
2022/06/09 05:22:04;;;;;;;17.20;10.30;;;;;;;23.60;66.34;94262.34;5092277;28;20878;-79
2022/06/09 05:24:29;;;;;;;20.80;13.80;;;;;;;23.79;66.01;94266.72;5091204;28;20170;-78
2022/06/09 05:26:54;;;;;;;41.03;24.33;;;;;;;23.86;67.19;94259.03;5093013;28;20207;-78
2022/06/09 05:29:20;;;;;;;24.25;15.23;;;;;;;23.98;69.23;94261.91;5093815;28;20192;-78
2022/06/09 05:31:46;;;;;;;21.05;13.55;;;;;;;23.81;66.71;94267.19;5092718;28;20162;-78
2022/06/09 05:34:11;;;;;;;21.52;14.95;;;;;;;23.65;68.06;94264.09;5094055;28;20260;-78
2022/06/09 05:36:38;;;;;;;18.50;11.85;;;;;;;23.63;70.03;94256.34;5091878;28;20637;-78
2022/06/09 05:47:19;;;;;;;17.20;10.77;;;;;;;24.42;62.48;94267.19;5091524;28;20307;-78
2022/06/09 05:49:47;;;;;;;19.27;9.98;;;;;;;24.12;64.64;94246.50;5091237;28;20562;-78
2022/06/09 05:52:13;;;;;;;13.82;9.75;;;;;;;23.67;64.14;94267.28;5091545;28;20177;-79
2022/06/09 05:54:38;;;;;;;18.40;12.13;;;;;;;22.95;67.98;94233.22;5091209;28;20256;-79
2022/06/09 05:57:04;;;;;;;18.20;11.80;;;;;;;22.97;70.25;94249.03;5091300;28;20254;-78
2022/06/09 05:59:30;;;;;;;19.75;11.82;;;;;;;22.84;71.08;94241.81;5091450;28;20213;-78
2022/06/09 06:01:55;;;;;;;19.90;11.40;;;;;;;22.82;70.39;94233.28;5090248;28;20636;-79
2022/06/09 06:04:21;;;;;;;20.30;10.43;;;;;;;22.89;70.16;94252.44;5091071;28;20174;-79
2022/06/09 06:06:46;;;;;;;15.60;10.68;;;;;;;22.99;70.43;94240.69;5092065;28;20205;-79
2022/06/09 06:09:15;;;;;;;18.15;10.77;;;;;;;23.46;72.38;94232.03;5091990;28;20193;-77
2022/06/09 06:11:42;;;;;;;17.40;10.10;;;;;;;24.19;69.48;94248.72;5091467;28;20170;-78
2022/06/09 06:14:08;;;;;;;13.68;9.95;;;;;;;24.48;67.50;94254.38;5091609;28;20234;-78
2022/06/09 06:16:34;;;;;;;17.15;9.65;;;;;;;24.79;66.39;94255.09;5091017;28;20189;-78
2022/06/09 06:19:00;;;;;;;17.00;10.50;;;;;;;25.18;66.11;94235.34;5091050;28;20251;-79
2022/06/09 06:21:26;;;;;;;16.52;10.57;;;;;;;25.58;65.55;94243.25;5091473;28;20844;-78
2022/06/09 06:23:51;;;;;;;21.63;10.98;;;;;;;25.85;63.26;94237.50;5091192;28;20200;-78
2022/06/09 06:26:18;;;;;;;14.40;9.00;;;;;;;26.04;60.45;94249.81;5091768;28;20217;-79
2022/06/09 06:28:44;;;;;;;16.25;9.43;;;;;;;25.89;62.66;94229.56;5102972;28;20177;-78
2022/06/09 06:31:10;;;;;;;14.98;9.82;;;;;;;26.04;61.52;94249.81;5093888;28;20268;-78
2022/06/09 06:33:35;;;;;;;13.10;8.52;;;;;;;26.02;62.00;94222.38;5091185;28;20605;-78
2022/06/09 06:36:01;;;;;;;14.57;8.88;;;;;;;26.26;60.74;94231.53;5091278;28;20212;-78
2022/06/09 06:38:26;;;;;;;15.50;9.52;;;;;;;26.60;61.35;94244.06;5090817;28;20197;-79
2022/06/09 06:40:54;;;;;;;12.43;9.10;;;;;;;26.88;58.99;94252.47;5089732;28;20613;-78
2022/06/09 06:43:20;;;;;;;15.00;9.27;;;;;;;26.84;58.61;94240.72;5089989;28;20593;-78
2022/06/09 06:45:46;;;;;;;15.95;10.02;;;;;;;26.47;56.28;94241.56;5090034;28;20182;-78
2022/06/09 06:48:11;;;;;;;13.75;9.50;;;;;;;26.05;59.00;94235.22;5088796;28;20611;-77
2022/06/09 06:50:37;;;;;;;11.88;8.77;;;;;;;25.33;57.53;94233.28;5090078;28;20253;-77
2022/06/09 06:53:02;;;;;;;14.43;8.48;;;;;;;24.96;60.35;94227.44;5089663;28;20269;-77
2022/06/09 06:55:29;;;;;;;14.65;9.43;;;;;;;24.64;62.58;94241.31;5089780;28;20178;-78
2022/06/09 06:57:55;;;;;;;14.80;9.02;;;;;;;24.25;60.70;94223.28;5092590;28;20228;-77
2022/06/09 07:00:22;;;;;;;13.57;9.30;;;;;;;24.07;62.64;94223.19;5094978;28;20170;-78
2022/06/09 07:02:49;;;;;;;15.65;9.98;;;;;;;24.12;66.57;94227.66;5094022;28;20180;-77
2022/06/09 07:05:16;;;;;;;18.27;10.15;;;;;;;24.47;65.91;94212.44;5094291;28;20196;-78
2022/06/09 07:07:41;;;;;;;12.70;8.75;;;;;;;25.07;62.54;94214.44;5094560;28;20261;-78
2022/06/09 07:10:10;;;;;;;16.58;10.68;;;;;;;25.68;61.20;94231.38;5094752;28;20213;-78
2022/06/09 07:12:36;;;;;;;14.88;9.60;;;;;;;25.86;60.80;94228.28;5094826;28;20198;-79
2022/06/09 07:15:02;;;;;;;16.55;9.82;;;;;;;26.27;61.41;94225.00;5094670;28;20557;-79
2022/06/09 07:17:28;;;;;;;12.25;8.55;;;;;;;26.66;61.95;94223.84;5094451;28;20209;-80
2022/06/09 07:19:53;;;;;;;11.60;8.95;;;;;;;27.07;57.25;94230.41;5094595;28;20166;-78
2022/06/09 07:22:19;;;;;;;14.52;8.02;;;;;;;27.18;56.45;94223.50;5094219;28;20569;-78
2022/06/09 07:24:46;;;;;;;11.60;8.90;;;;;;;27.14;57.13;94213.69;5093897;28;20250;-78
2022/06/09 07:27:12;;;;;;;11.07;8.25;;;;;;;27.09;54.40;94221.97;5093647;28;20185;-78
2022/06/09 07:29:38;;;;;;;13.43;8.73;;;;;;;26.84;55.26;94226.41;5093082;28;20181;-77
2022/06/09 07:32:04;;;;;;;11.60;8.75;;;;;;;26.76;54.63;94211.84;5093266;28;20632;-78
2022/06/09 07:34:29;;;;;;;11.85;8.50;;;;;;;26.69;57.02;94195.38;5093468;28;20186;-78
2022/06/09 07:36:55;;;;;;;13.52;8.95;;;;;;;26.83;55.00;94189.72;5094069;28;20197;-78
2022/06/09 07:39:20;;;;;;;17.98;9.27;;;;;;;26.88;55.93;94200.34;5093806;28;20227;-78
2022/06/09 07:41:46;;;;;;;12.02;9.05;;;;;;;26.46;56.14;94205.72;5093282;28;20174;-78
2022/06/09 07:44:12;;;;;;;13.85;7.97;;;;;;;26.35;59.12;94191.00;5094125;28;20175;-78
2022/06/09 07:46:39;;;;;;;12.27;8.05;;;;;;;26.93;59.96;94202.88;5093809;28;20288;-78
2022/06/09 07:49:06;;;;;;;13.40;8.70;;;;;;;27.08;54.55;94199.56;5074072;28;20204;-78
2022/06/09 07:51:32;;;;;;;15.43;8.18;;;;;;;26.73;55.25;94190.09;5075250;28;20249;-78
2022/06/09 07:53:58;;;;;;;10.93;6.63;;;;;;;26.93;57.06;94194.75;5093976;28;20261;-78
2022/06/09 07:56:24;;;;;;;14.05;7.63;;;;;;;27.10;56.23;94193.84;5092806;28;20613;-78
2022/06/09 07:58:49;;;;;;;14.18;7.97;;;;;;;27.19;55.33;94164.81;5093446;28;20221;-82
2022/06/09 08:01:17;;;;;;;13.98;8.60;;;;;;;27.53;56.51;94169.09;5092455;28;20182;-81
2022/06/09 08:03:42;;;;;;;13.15;8.25;;;;;;;28.07;55.70;94180.63;5093642;28;20695;-82
2022/06/09 08:06:10;;;;;;;11.10;8.23;;;;;;;28.31;55.33;94148.16;5092309;28;20182;-83
2022/06/09 08:08:35;;;;;;;15.90;7.50;;;;;;;28.58;54.60;94126.91;5092849;28;20193;-84
2022/06/09 08:11:01;;;;;;;17.83;8.27;;;;;;;28.53;51.27;94119.81;5128267;27;20177;-84
2022/06/09 08:13:27;;;;;;;10.15;7.28;;;;;;;28.40;50.39;94142.63;5120898;27;20174;-86
2022/06/09 08:15:53;;;;;;;13.48;7.95;;;;;;;28.50;51.28;94177.38;5091653;28;20181;-80
2022/06/09 08:18:18;;;;;;;14.00;7.97;;;;;;;28.46;52.92;94182.66;5091405;28;20265;-80
2022/06/09 08:20:44;;;;;;;35.58;8.75;;;;;;;27.88;52.38;94113.50;5091692;28;20616;-81
2022/06/09 08:23:14;;;;;;;11.45;8.32;;;;;;;28.43;51.13;94169.81;5093276;28;20265;-80
2022/06/09 08:25:45;;;;;;;12.63;9.32;;;;;;;28.57;51.69;94174.88;5093278;28;20572;-84
2022/06/09 08:28:12;;;;;;;19.98;10.85;;;;;;;28.41;53.78;94155.03;5091600;28;20166;-79
2022/06/09 08:30:38;;;;;;;12.57;8.48;;;;;;;28.75;53.46;94162.66;5093058;28;20204;-78
2022/06/09 08:33:05;;;;;;;14.07;7.60;;;;;;;28.77;54.01;94168.56;5092869;28;20182;-79
2022/06/09 08:35:31;;;;;;;11.68;7.22;;;;;;;28.66;50.68;94155.78;5093217;28;20230;-78
2022/06/09 08:37:57;;;;;;;9.93;7.00;;;;;;;28.62;50.23;94166.53;5092782;28;20261;-78
2022/06/09 08:40:49;;;;;;;14.45;7.22;;;;;;;28.68;51.56;94151.63;5092920;28;20253;-78
2022/06/09 08:43:34;;;;;;;11.07;7.93;;;;;;;28.42;51.62;94156.63;5091270;28;20216;-78
2022/06/09 08:46:18;;;;;;;12.25;7.88;;;;;;;28.12;50.17;94156.03;5092480;28;20166;-79
2022/06/09 08:48:45;;;;;;;13.93;7.55;;;;;;;27.71;50.66;94154.28;5089086;28;20243;-78
2022/06/09 08:51:21;;;;;;;13.35;7.68;;;;;;;27.61;50.51;94158.22;5092688;28;20641;-78
2022/06/09 08:53:54;;;;;;;13.70;8.48;;;;;;;27.75;49.32;94157.94;5092482;28;20666;-78
2022/06/09 08:56:30;;;;;;;10.13;6.97;;;;;;;27.93;52.76;94151.19;5090377;28;20186;-79
2022/06/09 08:59:06;;;;;;;13.50;8.82;;;;;;;27.94;52.15;94133.00;5092514;28;20586;-79
2022/06/09 09:01:43;;;;;;;13.35;8.80;;;;;;;27.82;50.72;94144.63;5090102;28;20219;-78
2022/06/09 09:04:30;;;;;;;21.58;8.38;;;;;;;27.77;51.16;94134.78;5091261;28;20208;-79
2022/06/09 09:07:02;;;;;;;10.95;7.50;;;;;;;27.55;51.96;94129.03;5083743;28;20205;-78
2022/06/09 09:09:30;;;;;;;11.35;6.32;;;;;;;27.63;52.31;94130.84;5092328;28;20185;-78
2022/06/09 09:12:16;;;;;;;11.50;7.78;;;;;;;27.86;53.21;94115.75;5090324;28;20200;-78
2022/06/09 09:14:47;;;;;;;14.18;8.43;;;;;;;28.04;50.64;94127.16;5092692;28;20161;-78
2022/06/09 09:17:21;;;;;;;13.80;7.88;;;;;;;27.81;50.06;94124.09;5092462;28;20201;-78
2022/06/09 09:20:01;;;;;;;8.70;6.63;;;;;;;27.40;52.29;94119.63;5091859;28;20180;-79
2022/06/09 09:22:38;;;;;;;17.15;7.68;;;;;;;27.41;52.28;94108.47;5085036;28;20174;-78
2022/06/09 09:25:15;;;;;;;13.00;7.60;;;;;;;27.70;52.86;94118.34;5089970;28;20252;-78
2022/06/09 09:27:56;;;;;;;8.65;6.55;;;;;;;27.78;51.21;94109.31;5091478;28;20211;-79
2022/06/09 09:30:55;;;;;;;9.38;6.28;;;;;;;27.70;51.73;94107.50;5086157;28;20166;-78
2022/06/09 09:33:21;;;;;;;12.40;6.05;;;;;;;27.57;50.39;94067.28;5090898;28;20188;-79
2022/06/09 09:35:50;;;;;;;14.23;6.60;;;;;;;27.28;48.78;94100.66;5091947;28;20177;-79
2022/06/09 09:38:18;;;;;;;15.73;6.53;;;;;;;27.12;49.29;94095.09;5091873;28;20217;-78
2022/06/09 09:40:48;;;;;;;10.95;6.55;;;;;;;27.19;53.34;94060.19;5091898;28;20185;-78
2022/06/09 09:43:20;;;;;;;11.35;7.20;;;;;;;27.11;50.20;94093.50;5092072;28;20173;-79
2022/06/09 09:45:49;;;;;;;9.50;6.40;;;;;;;27.04;52.25;94088.66;5090640;28;20195;-78
2022/06/09 09:48:18;;;;;;;14.55;7.43;;;;;;;26.69;51.47;94090.06;5088255;28;20170;-79
2022/06/09 09:51:13;;;;;;;11.95;7.15;;;;;;;26.61;56.75;94080.13;5091004;28;20189;-79
2022/06/09 09:53:47;;;;;;;11.20;6.55;;;;;;;26.63;56.19;94077.88;5090549;28;20625;-80
2022/06/09 09:56:15;;;;;;;10.90;6.65;;;;;;;26.47;52.77;94074.97;5092177;28;20722;-79
2022/06/09 09:58:50;;;;;;;10.45;6.97;;;;;;;26.49;55.36;94077.34;5091852;28;20313;-79
2022/06/09 10:01:18;;;;;;;8.85;6.25;;;;;;;26.56;53.19;94075.69;5092128;28;20258;-79
2022/06/09 10:09:32;;;;;;;8.77;5.78;;;;;;;26.93;52.60;94065.06;5092017;28;20230;-78
2022/06/09 10:12:09;;;;;;;11.18;5.80;;;;;;;26.86;51.67;94054.00;5083871;28;20169;-79
2022/06/09 10:14:40;;;;;;;8.50;5.88;;;;;;;26.97;49.96;94060.59;5091787;28;20173;-79
2022/06/09 10:17:28;;;;;;;6.20;5.10;;;;;;;26.95;50.04;94049.31;5083816;28;20173;-79
2022/06/09 10:19:56;;;;;;;9.82;5.80;;;;;;;27.09;51.60;94059.81;5091394;28;20173;-79
2022/06/09 10:22:22;;;;;;;8.98;5.97;;;;;;;27.23;53.23;94054.91;5092141;28;20856;-79
2022/06/09 10:24:54;;;;;;;12.57;6.70;;;;;;;27.31;49.08;94056.72;5092383;28;20240;-79
2022/06/09 10:27:23;;;;;;;10.07;5.95;;;;;;;26.58;50.98;94024.84;5091722;28;20158;-79
2022/06/09 10:30:02;;;;;;;10.77;6.18;;;;;;;26.07;56.10;94044.91;5091615;28;20248;-79
2022/06/09 10:32:45;;;;;;;14.15;6.30;;;;;;;26.06;57.79;94032.53;5087948;28;20165;-79
2022/06/09 10:35:49;;;;;;;9.32;4.93;;;;;;;26.38;51.90;94039.16;5092563;28;20558;-79
2022/06/09 10:38:29;;;;;;;10.57;5.85;;;;;;;26.31;52.58;94038.88;5095468;28;20185;-79
2022/06/09 10:40:58;;;;;;;8.50;5.60;;;;;;;26.14;52.58;94018.19;5094414;28;20165;-79
2022/06/09 10:43:26;;;;;;;18.27;6.05;;;;;;;26.40;53.11;94041.53;5095317;28;20173;-79
2022/06/09 10:46:40;;;;;;;8.35;6.07;;;;;;;26.54;50.15;94034.75;5094009;28;20610;-79
2022/06/09 10:58:15;;;;;;;8.77;4.88;;;;;;;26.38;50.76;94014.09;5085333;28;20281;-79
2022/06/09 11:00:48;;;;;;;8.93;5.20;;;;;;;25.86;52.41;94022.50;5080265;28;20185;-79
2022/06/09 11:03:20;;;;;;;10.85;5.00;;;;;;;25.98;51.34;94025.28;5089534;28;20696;-79
2022/06/09 11:06:11;;;;;;;11.38;5.78;;;;;;;25.79;50.87;94009.53;5094959;28;20940;-79
2022/06/09 11:08:36;;;;;;;9.20;5.45;;;;;;;25.88;51.66;94012.19;5095386;28;20182;-79
2022/06/09 11:11:23;;;;;;;6.90;5.20;;;;;;;26.12;53.16;94017.72;5095559;28;20177;-79
2022/06/09 11:14:01;;;;;;;12.13;5.30;;;;;;;26.32;54.66;94015.38;5095539;28;20184;-79
2022/06/09 11:16:35;;;;;;;9.82;5.18;;;;;;;26.28;51.79;94010.66;5094929;28;20648;-79
2022/06/09 11:19:29;;;;;;;9.15;5.88;;;;;;;26.16;50.36;93998.97;5095028;28;20663;-79
2022/06/09 11:22:34;;;;;;;6.43;4.50;;;;;;;26.03;51.20;93975.75;5094840;28;20166;-79
2022/06/09 11:25:08;;;;;;;8.18;4.53;;;;;;;26.22;50.26;94006.53;5063291;28;20196;-79
2022/06/09 11:27:49;;;;;;;5.85;4.15;;;;;;;26.06;53.33;93981.28;5095174;28;20188;-79
2022/06/09 11:30:44;;;;;;;15.43;5.22;;;;;;;26.16;52.41;93998.97;5094924;28;20264;-79
2022/06/09 11:33:22;;;;;;;8.07;5.03;;;;;;;26.11;51.00;93994.59;5094464;28;20245;-79
2022/06/09 11:36:40;;;;;;;10.75;5.43;;;;;;;26.02;49.67;93991.16;5094548;28;20170;-79
2022/06/09 11:39:28;;;;;;;5.97;4.40;;;;;;;25.84;50.38;93973.50;5032373;28;20200;-79
2022/06/09 11:42:30;;;;;;;14.00;5.40;;;;;;;25.82;52.57;93968.44;5091385;28;20169;-79
2022/06/09 11:44:58;;;;;;;7.75;4.38;;;;;;;26.08;53.54;93965.56;5092899;28;20169;-79
2022/06/09 11:47:31;;;;;;;4.40;3.50;;;;;;;26.34;50.64;93962.66;5093595;28;20162;-79
2022/06/09 11:50:04;;;;;;;6.35;4.28;;;;;;;26.51;50.26;93962.50;5093404;28;20223;-79
2022/06/09 11:52:38;;;;;;;9.70;4.00;;;;;;;26.60;50.07;93963.22;5093310;28;20178;-79
2022/06/09 11:55:23;;;;;;;6.63;3.67;;;;;;;26.81;52.32;93962.38;5093242;28;20182;-79
2022/06/09 11:57:50;;;;;;;5.63;3.97;;;;;;;26.86;51.37;93967.53;5093163;28;20594;-79
2022/06/09 12:00:18;;;;;;;6.93;4.03;;;;;;;26.67;49.33;93960.75;5093323;28;20162;-79